createdAt,value
2019-05-25T00:01:31.576Z,99.90
2019-05-25T00:04:12.413Z,99.90
2019-05-25T00:06:53.134Z,99.90
2019-05-25T00:09:34.124Z,99.90
2019-05-25T00:12:15.321Z,99.90
2019-05-25T00:14:56.901Z,99.90
2019-05-25T00:17:38.527Z,99.90
2019-05-25T00:20:21.230Z,99.90
2019-05-25T00:23:02.324Z,99.90
2019-05-25T00:25:43.500Z,99.90
2019-05-25T00:28:25.393Z,99.90
2019-05-25T00:31:06.644Z,99.90
2019-05-25T00:33:48.177Z,99.90
2019-05-25T00:36:29.659Z,99.90
2019-05-25T00:39:10.409Z,99.90
2019-05-25T00:41:51.212Z,99.90
2019-05-25T00:44:32.473Z,99.90
2019-05-25T00:47:14.061Z,99.90
2019-05-25T00:49:55.512Z,99.90
2019-05-25T00:52:36.290Z,99.90
2019-05-25T00:55:17.099Z,99.90
2019-05-25T00:57:58.076Z,99.90
2019-05-25T01:00:38.687Z,99.90
2019-05-25T01:03:20.105Z,99.90
2019-05-25T01:06:01.442Z,99.90
2019-05-25T01:08:42.110Z,99.90
2019-05-25T01:11:23.567Z,99.90
2019-05-25T01:14:04.332Z,99.90
2019-05-25T01:16:45.331Z,99.90
2019-05-25T01:19:26.857Z,99.90
2019-05-25T01:22:08.058Z,99.90
2019-05-25T01:24:48.900Z,99.90
2019-05-25T01:27:29.548Z,99.90
2019-05-25T01:30:10.253Z,99.90
2019-05-25T01:32:51.630Z,99.90
2019-05-25T01:35:32.315Z,99.90
2019-05-25T01:38:13.135Z,99.90
2019-05-25T01:40:54.065Z,99.90
2019-05-25T01:43:35.620Z,99.90
2019-05-25T01:46:16.451Z,99.90
2019-05-25T01:48:57.868Z,99.90
2019-05-25T01:51:38.546Z,99.90
2019-05-25T01:54:20.041Z,99.90
2019-05-25T01:57:01.575Z,99.90
2019-05-25T01:59:42.295Z,99.90
2019-05-25T02:02:23.807Z,99.90
2019-05-25T02:05:04.436Z,99.90
2019-05-25T02:07:46.113Z,99.90
2019-05-25T02:10:27.577Z,99.90
2019-05-25T02:13:09.136Z,99.90
2019-05-25T02:15:49.739Z,99.90
2019-05-25T02:18:30.331Z,99.90
2019-05-25T02:21:11.044Z,99.90
2019-05-25T02:23:52.429Z,99.90
2019-05-25T02:26:34.052Z,99.90
2019-05-25T02:29:15.233Z,99.90
2019-05-25T02:31:56.764Z,99.90
2019-05-25T02:34:38.189Z,99.90
2019-05-25T02:37:19.263Z,99.90
2019-05-25T02:40:00.048Z,99.90
2019-05-25T02:42:41.272Z,99.90
2019-05-25T02:45:22.879Z,99.90
2019-05-25T02:48:03.701Z,99.90
2019-05-25T02:50:45.201Z,99.90
2019-05-25T02:53:26.618Z,99.90
2019-05-25T02:56:07.247Z,99.90
2019-05-25T03:01:33.902Z,99.90
2019-05-25T03:04:14.673Z,99.90
2019-05-25T03:06:56.214Z,99.90
2019-05-25T03:09:37.579Z,99.90
2019-05-25T03:12:19.037Z,99.90
2019-05-25T03:14:59.563Z,99.90
2019-05-25T03:17:41.008Z,99.90
2019-05-25T03:20:21.627Z,99.90
2019-05-25T03:23:03.127Z,99.90
2019-05-25T03:25:49.497Z,99.90
2019-05-25T03:28:26.440Z,99.90
2019-05-25T03:31:07.125Z,99.90
2019-05-25T03:33:47.811Z,99.90
2019-05-25T03:36:28.488Z,99.90
2019-05-25T03:39:09.763Z,99.90
2019-05-25T03:41:50.472Z,99.90
2019-05-25T03:44:31.161Z,99.90
2019-05-25T03:47:11.841Z,99.90
2019-05-25T03:49:52.503Z,99.90
2019-05-25T03:52:33.164Z,99.90
2019-05-25T03:55:13.910Z,99.90
2019-05-25T03:57:55.299Z,99.90
2019-05-25T04:00:36.126Z,99.90
2019-05-25T04:03:16.900Z,99.90
2019-05-25T04:05:58.384Z,99.90
2019-05-25T04:08:39.953Z,99.90
2019-05-25T04:11:20.780Z,99.90
2019-05-25T04:14:02.230Z,99.90
2019-05-25T04:16:43.804Z,99.90
2019-05-25T04:19:24.520Z,99.90
2019-05-25T04:22:05.815Z,99.90
2019-05-25T04:24:47.134Z,99.90
2019-05-25T04:27:27.918Z,99.90
2019-05-25T04:30:09.325Z,99.90
2019-05-25T04:32:50.124Z,99.90
2019-05-25T04:35:31.344Z,99.90
2019-05-25T04:38:12.797Z,99.90
2019-05-25T04:40:53.692Z,99.90
2019-05-25T04:43:34.473Z,99.90
2019-05-25T04:46:15.969Z,99.90
2019-05-25T04:48:56.590Z,99.90
2019-05-25T04:51:38.141Z,99.90
2019-05-25T04:54:19.652Z,99.90
2019-05-25T04:57:01.210Z,99.90
2019-05-25T04:59:42.765Z,99.90
2019-05-25T05:02:24.058Z,99.90
2019-05-25T05:05:05.611Z,99.90
2019-05-25T05:07:46.779Z,99.90
2019-05-25T05:10:27.520Z,99.90
2019-05-25T05:13:08.972Z,99.90
2019-05-25T05:15:50.057Z,99.90
2019-05-25T05:18:31.668Z,99.90
2019-05-25T05:21:12.388Z,99.90
2019-05-25T05:23:53.039Z,99.90
2019-05-25T05:26:33.734Z,99.90
2019-05-25T05:29:14.447Z,99.90
2019-05-25T05:31:56.073Z,99.90
2019-05-25T05:34:37.493Z,99.90
2019-05-25T05:37:18.983Z,99.90
2019-05-25T05:40:00.380Z,99.90
2019-05-25T05:42:41.611Z,99.90
2019-05-25T05:45:23.420Z,99.90
2019-05-25T05:48:04.625Z,99.90
2019-05-25T05:50:45.403Z,99.90
2019-05-25T05:53:26.099Z,99.90
2019-05-25T05:56:06.875Z,99.90
2019-05-25T05:58:48.204Z,99.90
2019-05-25T06:01:29.620Z,99.90
2019-05-25T06:04:11.074Z,99.90
2019-05-25T06:06:52.592Z,99.90
2019-05-25T06:09:33.231Z,99.90
2019-05-25T06:12:14.029Z,99.90
2019-05-25T06:14:55.508Z,99.90
2019-05-25T06:17:36.726Z,99.90
2019-05-25T06:20:18.133Z,99.90
2019-05-25T06:22:58.861Z,99.90
2019-05-25T06:25:40.446Z,99.90
2019-05-25T06:28:22.527Z,99.90
2019-05-25T06:31:03.883Z,99.90
2019-05-25T06:33:45.276Z,99.90
2019-05-25T06:36:26.781Z,99.90
2019-05-25T06:39:07.405Z,99.90
2019-05-25T06:41:48.990Z,99.90
2019-05-25T06:44:30.658Z,99.90
2019-05-25T06:47:12.228Z,99.90
2019-05-25T06:49:52.974Z,99.90
2019-05-25T06:52:34.461Z,99.90
2019-05-25T06:55:16.034Z,99.90
2019-05-25T06:57:56.880Z,99.90
2019-05-25T07:00:37.636Z,99.90
2019-05-25T07:03:18.984Z,99.90
2019-05-25T07:05:59.655Z,99.90
2019-05-25T07:08:40.237Z,99.90
2019-05-25T07:11:20.845Z,99.90
2019-05-25T07:14:01.471Z,99.90
2019-05-25T07:16:42.297Z,99.90
2019-05-25T07:19:23.063Z,99.90
2019-05-25T07:22:04.354Z,99.90
2019-05-25T07:24:45.753Z,99.90
2019-05-25T07:27:27.308Z,99.90
2019-05-25T07:30:08.181Z,99.90
2019-05-25T07:32:48.881Z,99.90
2019-05-25T07:35:30.452Z,99.90
2019-05-25T07:38:11.991Z,99.90
2019-05-25T07:40:53.384Z,99.90
2019-05-25T07:43:34.155Z,99.90
2019-05-25T07:46:17.101Z,99.90
2019-05-25T07:48:57.408Z,99.90
2019-05-25T07:51:37.957Z,99.90
2019-05-25T07:54:18.724Z,99.90
2019-05-25T07:56:59.300Z,99.90
2019-05-25T07:59:40.136Z,99.90
2019-05-25T08:02:21.756Z,99.90
2019-05-25T08:05:02.608Z,99.90
2019-05-25T08:07:43.303Z,99.90
2019-05-25T08:10:24.948Z,99.90
2019-05-25T08:13:06.474Z,99.90
2019-05-25T08:15:48.073Z,99.90
2019-05-25T08:18:28.718Z,99.90
2019-05-25T08:21:09.406Z,99.90
2019-05-25T08:23:50.912Z,99.90
2019-05-25T08:26:31.646Z,99.90
2019-05-25T08:29:13.113Z,99.90
2019-05-25T08:31:54.413Z,99.90
2019-05-25T08:34:35.519Z,99.70
2019-05-25T08:37:16.412Z,99.60
2019-05-25T08:39:57.068Z,99.20
2019-05-25T08:42:38.671Z,99.20
2019-05-25T08:45:19.338Z,99.10
2019-05-25T08:48:00.639Z,98.80
2019-05-25T08:50:41.419Z,98.40
2019-05-25T08:53:39.604Z,97.90
2019-05-25T08:56:05.181Z,97.70
2019-05-25T08:58:48.667Z,97.90
2019-05-25T09:01:28.544Z,98.00
2019-05-25T09:04:09.436Z,98.40
2019-05-25T09:06:39.050Z,98.10
2019-05-25T09:09:08.766Z,97.60
2019-05-25T09:11:57.199Z,97.90
2019-05-25T09:14:46.139Z,98.00
2019-05-25T09:17:27.420Z,97.50
2019-05-25T09:20:08.101Z,97.20
2019-05-25T09:22:49.534Z,96.70
2019-05-25T09:25:30.914Z,96.60
2019-05-25T09:28:12.536Z,96.30
2019-05-25T09:30:53.869Z,95.60
2019-05-25T09:33:34.628Z,96.00
2019-05-25T09:36:16.115Z,97.00
2019-05-25T09:38:57.651Z,97.20
2019-05-25T09:41:38.369Z,97.20
2019-05-25T09:44:19.254Z,96.50
2019-05-25T09:47:00.940Z,96.60
2019-05-25T09:49:42.433Z,96.50
2019-05-25T09:52:23.251Z,96.10
2019-05-25T09:55:04.293Z,95.90
2019-05-25T09:57:45.715Z,95.70
2019-05-25T10:00:26.555Z,95.10
2019-05-25T10:03:08.155Z,94.60
2019-05-25T10:05:49.663Z,95.10
2019-05-25T10:08:31.310Z,94.90
2019-05-25T10:11:12.772Z,94.60
2019-05-25T10:13:53.540Z,94.10
2019-05-25T10:16:34.895Z,94.70
2019-05-25T10:19:15.797Z,95.00
2019-05-25T10:21:59.573Z,93.60
2019-05-25T10:24:39.834Z,94.20
2019-05-25T10:27:20.598Z,94.60
2019-05-25T10:30:01.324Z,94.40
2019-05-25T10:32:30.733Z,94.90
2019-05-25T10:35:19.235Z,93.40
2019-05-25T10:41:07.653Z,93.40
2019-05-25T10:43:49.239Z,93.00
2019-05-25T10:46:30.772Z,92.50
2019-05-25T10:49:12.103Z,92.10
2019-05-25T10:51:53.558Z,92.10
2019-05-25T10:54:34.273Z,91.40
2019-05-25T10:57:15.640Z,90.60
2019-05-25T10:59:56.425Z,90.50
2019-05-25T11:02:37.819Z,90.50
2019-05-25T11:05:18.507Z,90.60
2019-05-25T11:07:59.306Z,91.00
2019-05-25T11:10:39.981Z,91.60
2019-05-25T11:13:21.314Z,92.60
2019-05-25T11:16:01.965Z,93.80
2019-05-25T11:18:42.635Z,95.70
2019-05-25T11:21:24.184Z,96.80
2019-05-25T11:24:05.093Z,97.70
2019-05-25T11:26:46.589Z,97.20
2019-05-25T11:29:27.686Z,96.30
2019-05-25T11:32:09.324Z,94.80
2019-05-25T11:34:50.033Z,93.40
2019-05-25T11:37:30.681Z,91.80
2019-05-25T11:40:11.928Z,91.60
2019-05-25T11:42:52.815Z,91.00
2019-05-25T11:45:34.329Z,90.50
2019-05-25T11:48:15.018Z,90.50
2019-05-25T11:50:56.434Z,89.00
2019-05-25T11:53:37.089Z,88.10
2019-05-25T11:56:18.043Z,84.70
2019-05-25T11:58:59.500Z,81.90
2019-05-25T12:01:40.986Z,76.00
2019-05-25T12:04:22.515Z,71.00
2019-05-25T12:06:51.971Z,66.20
2019-05-25T12:09:40.351Z,64.10
2019-05-25T12:12:28.809Z,62.60
2019-05-25T12:15:09.677Z,57.40
2019-05-25T12:17:50.589Z,54.20
2019-05-25T12:20:31.543Z,53.00
2019-05-25T12:23:12.538Z,49.70
2019-05-25T12:25:53.437Z,49.90
2019-05-25T12:28:34.344Z,48.30
2019-05-25T12:31:15.137Z,48.60
2019-05-25T12:33:55.783Z,48.10
2019-05-25T12:36:36.719Z,47.80
2019-05-25T12:39:17.536Z,47.10
2019-05-25T12:41:58.249Z,45.00
2019-05-25T12:44:39.986Z,45.30
2019-05-25T12:47:21.479Z,47.00
2019-05-25T12:50:03.059Z,51.40
2019-05-25T12:52:43.803Z,53.30
2019-05-25T12:55:24.770Z,54.00
2019-05-25T12:58:06.278Z,51.80
2019-05-25T13:00:55.797Z,49.50
2019-05-25T13:03:29.990Z,47.50
2019-05-25T13:06:11.363Z,46.90
2019-05-25T13:08:52.122Z,47.50
2019-05-25T13:11:32.870Z,47.90
2019-05-25T13:14:15.098Z,45.60
2019-05-25T13:16:56.233Z,45.10
2019-05-25T13:19:37.298Z,44.90
2019-05-25T13:22:18.370Z,43.80
2019-05-25T13:25:00.010Z,41.90
2019-05-25T13:27:41.377Z,41.80
2019-05-25T13:30:22.878Z,42.10
2019-05-25T13:33:03.594Z,42.10
2019-05-25T13:35:44.936Z,40.80
2019-05-25T13:38:26.384Z,38.80
2019-05-25T13:41:07.876Z,37.90
2019-05-25T13:43:50.185Z,39.30
2019-05-25T13:46:31.086Z,38.50
2019-05-25T13:49:11.807Z,38.00
2019-05-25T13:51:52.583Z,38.70
2019-05-25T13:54:34.254Z,39.50
2019-05-25T13:57:15.586Z,39.90
2019-05-25T13:59:57.203Z,39.90
2019-05-25T14:02:37.907Z,40.10
2019-05-25T14:05:19.437Z,39.90
2019-05-25T14:08:00.896Z,38.20
2019-05-25T14:10:42.165Z,38.00
2019-05-25T14:13:23.778Z,37.10
2019-05-25T14:16:07.488Z,34.80
2019-05-25T14:18:47.525Z,34.80
2019-05-25T14:21:28.180Z,33.60
2019-05-25T14:24:09.533Z,35.50
2019-05-25T14:26:50.344Z,33.90
2019-05-25T14:29:31.889Z,34.60
2019-05-25T14:32:12.906Z,34.10
2019-05-25T14:34:53.678Z,33.10
2019-05-25T14:40:14.091Z,31.40
2019-05-25T14:45:38.881Z,34.60
2019-05-25T14:48:21.690Z,35.00
2019-05-25T14:51:03.170Z,34.20
2019-05-25T14:53:44.320Z,33.70
2019-05-25T14:56:25.866Z,31.40
2019-05-25T14:59:07.011Z,31.20
2019-05-25T15:02:01.446Z,29.50
2019-05-25T15:04:31.686Z,30.70
2019-05-25T15:07:12.864Z,31.40
2019-05-25T15:09:53.683Z,32.00
2019-05-25T15:12:34.523Z,31.90
2019-05-25T15:15:15.633Z,32.90
2019-05-25T15:17:57.598Z,32.40
2019-05-25T15:20:38.738Z,31.80
2019-05-25T15:23:19.935Z,32.20
2019-05-25T15:26:01.393Z,32.60
2019-05-25T15:31:28.074Z,29.80
2019-05-25T15:34:09.009Z,30.00
2019-05-25T15:36:50.322Z,29.60
2019-05-25T15:39:31.142Z,29.40
2019-05-25T15:42:11.791Z,30.40
2019-05-25T15:44:52.455Z,30.50
2019-05-25T15:47:33.098Z,31.00
2019-05-25T15:50:13.882Z,30.30
2019-05-25T15:52:56.693Z,30.70
2019-05-25T15:55:38.218Z,29.60
2019-05-25T15:58:18.995Z,29.10
2019-05-25T16:00:59.838Z,29.20
2019-05-25T16:03:41.296Z,29.40
2019-05-25T16:06:23.975Z,30.00
2019-05-25T16:09:05.388Z,30.20
2019-05-25T16:11:46.148Z,31.10
2019-05-25T16:14:26.931Z,33.00
2019-05-25T16:17:07.746Z,34.20
2019-05-25T16:19:49.255Z,34.30
2019-05-25T16:22:30.028Z,33.80
2019-05-25T16:25:10.947Z,34.50
2019-05-25T16:27:52.344Z,34.00
2019-05-25T16:30:33.196Z,33.60
2019-05-25T16:33:14.991Z,33.80
2019-05-25T16:35:58.057Z,34.20
2019-05-25T16:38:38.904Z,35.30
2019-05-25T16:41:19.561Z,35.20
2019-05-25T16:44:01.070Z,35.50
2019-05-25T16:46:42.432Z,34.50
2019-05-25T16:49:23.810Z,34.10
2019-05-25T16:52:05.300Z,33.90
2019-05-25T16:54:46.771Z,34.50
2019-05-25T16:57:27.916Z,34.80
2019-05-25T17:00:09.505Z,34.20
2019-05-25T17:02:51.061Z,35.50
2019-05-25T17:05:31.755Z,36.10
2019-05-25T17:08:12.420Z,34.80
2019-05-25T17:10:53.857Z,35.80
2019-05-25T17:13:35.415Z,35.90
2019-05-25T17:16:16.208Z,35.90
2019-05-25T17:18:56.891Z,36.50
2019-05-25T17:21:37.719Z,35.90
2019-05-25T17:24:19.168Z,36.80
2019-05-25T17:27:00.858Z,37.50
2019-05-25T17:29:41.596Z,37.00
2019-05-25T17:32:22.780Z,36.80
2019-05-25T17:35:03.794Z,36.90
2019-05-25T17:37:44.566Z,36.60
2019-05-25T17:40:26.231Z,37.70
2019-05-25T17:43:07.791Z,37.10
2019-05-25T17:45:48.704Z,38.80
2019-05-25T17:48:30.252Z,39.10
2019-05-25T17:51:11.674Z,40.20
2019-05-25T17:53:53.054Z,40.10
2019-05-25T17:56:33.833Z,42.80
2019-05-25T17:59:15.403Z,44.90
2019-05-25T18:01:56.052Z,47.30
2019-05-25T18:04:37.357Z,48.80
2019-05-25T18:07:18.128Z,50.60
2019-05-25T18:09:59.601Z,52.30
2019-05-25T18:12:40.359Z,53.20
2019-05-25T18:15:21.142Z,54.10
2019-05-25T18:18:01.854Z,55.20
2019-05-25T18:20:43.577Z,55.30
2019-05-25T18:23:24.884Z,55.70
2019-05-25T18:26:07.959Z,56.60
2019-05-25T18:28:48.859Z,56.90
2019-05-25T18:31:30.445Z,57.90
2019-05-25T18:34:21.750Z,58.60
2019-05-25T18:36:54.117Z,59.10
2019-05-25T18:39:35.001Z,59.90
2019-05-25T18:42:16.291Z,61.00
2019-05-25T18:44:57.325Z,61.80
2019-05-25T18:47:38.990Z,62.90
2019-05-25T18:50:20.369Z,64.20
2019-05-25T18:53:02.121Z,65.90
2019-05-25T18:55:42.896Z,67.90
2019-05-25T18:58:24.486Z,69.70
2019-05-25T19:01:05.596Z,71.40
2019-05-25T19:03:47.205Z,73.40
2019-05-25T19:06:28.823Z,74.70
2019-05-25T19:09:09.645Z,76.50
2019-05-25T19:11:51.225Z,79.00
2019-05-25T19:14:32.136Z,80.30
2019-05-25T19:17:12.967Z,82.50
2019-05-25T19:19:54.478Z,83.70
2019-05-25T19:22:35.888Z,84.90
2019-05-25T19:25:17.544Z,85.20
2019-05-25T19:27:58.997Z,86.00
2019-05-25T19:30:40.553Z,86.60
2019-05-25T19:33:21.757Z,87.70
2019-05-25T19:36:02.655Z,88.10
2019-05-25T19:38:44.137Z,89.40
2019-05-25T19:41:25.742Z,90.00
2019-05-25T19:44:07.130Z,90.90
2019-05-25T19:46:49.762Z,91.10
2019-05-25T19:49:31.238Z,91.40
2019-05-25T19:52:12.001Z,91.70
2019-05-25T19:54:52.732Z,92.30
2019-05-25T19:57:33.637Z,92.70
2019-05-25T20:00:14.863Z,92.90
2019-05-25T20:02:56.396Z,93.10
2019-05-25T20:05:37.977Z,93.20
2019-05-25T20:08:19.142Z,93.50
2019-05-25T20:11:00.491Z,93.60
2019-05-25T20:13:41.849Z,93.80
2019-05-25T20:16:25.126Z,93.90
2019-05-25T20:19:05.952Z,94.00
2019-05-25T20:21:46.544Z,94.50
2019-05-25T20:24:27.914Z,94.60
2019-05-25T20:27:08.691Z,94.60
2019-05-25T20:29:50.386Z,94.70
2019-05-25T20:32:31.635Z,94.80
2019-05-25T20:35:12.881Z,94.90
2019-05-25T20:37:54.631Z,95.10
2019-05-25T20:40:36.298Z,95.40
2019-05-25T20:43:16.998Z,95.50
2019-05-25T20:45:58.696Z,95.90
2019-05-25T20:48:40.023Z,96.00
2019-05-25T20:51:21.657Z,96.10
2019-05-25T20:54:02.871Z,96.30
2019-05-25T20:56:43.566Z,96.50
2019-05-25T20:59:24.486Z,96.40
2019-05-25T21:02:05.076Z,96.50
2019-05-25T21:04:45.847Z,96.60
2019-05-25T21:07:27.330Z,96.70
2019-05-25T21:10:11.421Z,96.80
2019-05-25T21:12:52.509Z,96.90
2019-05-25T21:15:33.970Z,97.10
2019-05-25T21:18:14.606Z,97.20
2019-05-25T21:20:56.240Z,97.30
2019-05-25T21:23:37.058Z,97.60
2019-05-25T21:26:18.182Z,97.90
2019-05-25T21:28:58.883Z,98.00
2019-05-25T21:31:39.593Z,98.10
2019-05-25T21:34:21.408Z,98.10
2019-05-25T21:37:02.779Z,98.30
2019-05-25T21:39:44.016Z,98.40
2019-05-25T21:42:25.563Z,98.50
2019-05-25T21:45:06.304Z,98.70
2019-05-25T21:47:47.038Z,98.80
2019-05-25T21:50:28.506Z,99.00
2019-05-25T21:53:11.257Z,99.20
2019-05-25T21:55:52.866Z,99.20
2019-05-25T21:58:34.013Z,99.40
2019-05-25T22:01:15.320Z,99.30
2019-05-25T22:03:56.076Z,99.20
2019-05-25T22:06:36.947Z,99.20
2019-05-25T22:09:17.709Z,99.30
2019-05-25T22:11:47.196Z,99.40
2019-05-25T22:14:48.113Z,99.60
2019-05-25T22:17:25.844Z,99.70
2019-05-25T22:20:06.532Z,99.90
2019-05-25T22:22:47.249Z,99.90
2019-05-25T22:25:28.729Z,99.90
2019-05-25T22:27:58.199Z,99.90
2019-05-25T22:30:46.683Z,99.90
2019-05-25T22:33:35.191Z,99.90
2019-05-25T22:36:16.139Z,99.90
2019-05-25T22:38:57.031Z,99.90
2019-05-25T22:41:38.198Z,99.90
2019-05-25T22:44:18.781Z,99.90
2019-05-25T22:46:59.618Z,99.90
2019-05-25T22:49:40.336Z,99.90
2019-05-25T22:52:21.017Z,99.90
2019-05-25T22:55:02.272Z,99.90
2019-05-25T22:57:43.504Z,99.90
2019-05-25T23:00:24.183Z,99.90
2019-05-25T23:03:05.030Z,99.90
2019-05-25T23:05:45.860Z,99.90
2019-05-25T23:08:28.262Z,99.90
2019-05-25T23:11:09.819Z,99.90
2019-05-25T23:13:52.195Z,99.90
2019-05-25T23:16:33.132Z,99.90
2019-05-25T23:19:13.968Z,99.90
2019-05-25T23:21:54.861Z,99.90
2019-05-25T23:24:35.700Z,99.90
2019-05-25T23:27:16.406Z,99.90
2019-05-25T23:29:57.076Z,99.90
2019-05-25T23:32:37.753Z,99.90
2019-05-25T23:35:19.130Z,99.90
2019-05-25T23:38:03.333Z,99.90
2019-05-25T23:40:42.903Z,99.90
2019-05-25T23:43:24.311Z,99.90
2019-05-25T23:46:06.036Z,99.90
2019-05-25T23:48:47.031Z,99.90
2019-05-25T23:51:28.602Z,99.90
2019-05-25T23:53:58.040Z,99.90
2019-05-25T23:56:46.547Z,99.90
2019-05-25T23:59:28.030Z,99.90
